Wetterdaten: Woche 11.03.19 - 17.03.19 (KW11)
Datum Zeit Temp. 2m rel. Feuchte Luftdruck Regen Wind Richtung Sonne ET UV-Index Solar Taupunkt Ben
11.03.2019 00:00 4,4 C 81 % 1014,2 hPa 0,4 mm 8,8 km/h (2 Bft) O 0,00 h 0,0 mm 0,0 UV-I 0 W/m 1,3 C 20,9 km/h (4 Bft)
11.03.2019 01:00 4,4 C 82 % 1014,1 hPa 0,0 mm 13,5 km/h (3 Bft) O-SO 0,00 h 0,0 mm 0,0 UV-I 0 W/m 1,6 C 31,6 km/h (5 Bft)
11.03.2019 02:00 3,3 C 88 % 1013,9 hPa 0,4 mm 10,9 km/h (2 Bft) O-SO 0,00 h 0,0 mm 0,0 UV-I 0 W/m 1,5 C 26,5 km/h (4 Bft)
11.03.2019 03:00 3,9 C 84 % 1013,6 hPa 0,0 mm 14,9 km/h (3 Bft) SO 0,00 h 0,0 mm 0,0 UV-I 0 W/m 1,4 C 32,8 km/h (5 Bft)
11.03.2019 04:00 3,9 C 84 % 1013,5 hPa 0,0 mm 18,8 km/h (3 Bft) SO 0,00 h 0,0 mm 0,0 UV-I 0 W/m 1,4 C 39,2 km/h (6 Bft)
11.03.2019 05:00 3,7 C 82 % 1013,9 hPa 0,0 mm 17,3 km/h (3 Bft) O-SO 0,00 h 0,0 mm 0,0 UV-I 0 W/m 0,9 C 35,9 km/h (5 Bft)
11.03.2019 06:00 3,1 C 83 % 1014,3 hPa 0,0 mm 17,8 km/h (3 Bft) SO 0,00 h 0,0 mm 0,0 UV-I 0 W/m 0,5 C 40,2 km/h (6 Bft)
11.03.2019 07:00 2,1 C 91 % 1014,9 hPa 0,2 mm 13,2 km/h (3 Bft) O-SO 0,00 h 0,0 mm 0,0 UV-I 14 W/m 0,7 C 31,1 km/h (5 Bft)
11.03.2019 08:00 2,3 C 92 % 1015,5 hPa 0,4 mm 16,7 km/h (3 Bft) O-SO 0,00 h 0,0 mm 0,3 UV-I 64 W/m 1,2 C 34,2 km/h (5 Bft)
11.03.2019 09:00 2,8 C 90 % 1016,4 hPa 0,2 mm 18,1 km/h (3 Bft) O-SO 0,00 h 0,0 mm 0,3 UV-I 97 W/m 1,3 C 37,8 km/h (5 Bft)
11.03.2019 10:00 3,4 C 89 % 1016,9 hPa 0,2 mm 17,6 km/h (3 Bft) S-SO 0,00 h 0,1 mm 0,3 UV-I 91 W/m 1,7 C 35,5 km/h (5 Bft)
11.03.2019 11:00 3,5 C 89 % 1017,4 hPa 0,2 mm 11,1 km/h (2 Bft) SO 0,00 h 0,1 mm 0,3 UV-I 64 W/m 1,8 C 27,0 km/h (4 Bft)
11.03.2019 12:00 3,8 C 93 % 1018,0 hPa 0,6 mm 13,4 km/h (3 Bft) SO 0,42 h 0,0 mm 0,7 UV-I 409 W/m 2,7 C 29,8 km/h (5 Bft)
11.03.2019 13:00 6,8 C 77 % 1018,4 hPa 0,6 mm 16,5 km/h (3 Bft) S-SO 0,67 h 0,2 mm 1,0 UV-I 475 W/m 3,0 C 47,2 km/h (6 Bft)
11.03.2019 14:00 7,1 C 70 % 1019,2 hPa 0,6 mm 25,2 km/h (4 Bft) S-SO 0,33 h 0,2 mm 0,8 UV-I 291 W/m 2,1 C 55,2 km/h (7 Bft)
11.03.2019 15:00 7,3 C 67 % 1019,8 hPa 0,0 mm 24,4 km/h (4 Bft) S-SO 0,17 h 0,2 mm 0,3 UV-I 161 W/m 1,6 C 51,8 km/h (7 Bft)
11.03.2019 16:00 7,2 C 68 % 1020,5 hPa 0,0 mm 15,9 km/h (3 Bft) S 0,25 h 0,1 mm 0,3 UV-I 131 W/m 1,7 C 40,0 km/h (6 Bft)
11.03.2019 17:00 6,9 C 70 % 1020,9 hPa 0,0 mm 19,0 km/h (3 Bft) S-SO 0,83 h 0,1 mm 0,3 UV-I 130 W/m 1,8 C 45,2 km/h (6 Bft)
11.03.2019 18:00 6,4 C 73 % 1021,8 hPa 0,0 mm 23,5 km/h (4 Bft) S 0,17 h 0,1 mm 0,0 UV-I 19 W/m 1,9 C 46,8 km/h (6 Bft)
11.03.2019 19:00 6,0 C 72 % 1023,2 hPa 0,0 mm 13,9 km/h (3 Bft) S-SW 0,00 h 0,1 mm 0,0 UV-I 0 W/m 1,4 C 36,5 km/h (5 Bft)
11.03.2019 20:00 5,7 C 72 % 1024,0 hPa 0,0 mm 12,3 km/h (3 Bft) S 0,00 h 0,0 mm 0,0 UV-I 0 W/m 1,1 C 31,3 km/h (5 Bft)
11.03.2019 21:00 5,1 C 76 % 1024,8 hPa 0,0 mm 14,4 km/h (3 Bft) S 0,00 h 0,0 mm 0,0 UV-I 0 W/m 1,2 C 29,4 km/h (5 Bft)
11.03.2019 22:00 4,6 C 78 % 1025,3 hPa 0,0 mm 14,2 km/h (3 Bft) S 0,00 h 0,0 mm 0,0 UV-I 0 W/m 1,1 C 28,1 km/h (4 Bft)
11.03.2019 23:00 4,0 C 82 % 1025,4 hPa 0,0 mm 6,6 km/h (2 Bft) S 0,00 h 0,0 mm 0,0 UV-I 0 W/m 1,1 C 16,6 km/h (3 Bft)
12.03.2019 00:00 3,3 C 85 % 1025,4 hPa 0,2 mm 4,0 km/h (1 Bft) S-SO 0,00 h 0,0 mm 0,0 UV-I 0 W/m 1,0 C 9,1 km/h (2 Bft)
12.03.2019 01:00 2,6 C 86 % 1025,2 hPa 0,0 mm 0,6 km/h (0 Bft) S 0,00 h 0,0 mm 0,0 UV-I 0 W/m 0,5 C 2,6 km/h (1 Bft)
12.03.2019 02:00 2,2 C 87 % 1025,0 hPa 0,0 mm 0,5 km/h (0 Bft) NO 0,00 h 0,0 mm 0,0 UV-I 0 W/m 0,3 C 3,7 km/h (1 Bft)
12.03.2019 03:00 2,1 C 87 % 1024,1 hPa 0,0 mm 0,9 km/h (0 Bft) NO 0,00 h 0,0 mm 0,0 UV-I 0 W/m 0,1 C 5,5 km/h (1 Bft)
12.03.2019 04:00 2,0 C 86 % 1023,7 hPa 0,0 mm 3,7 km/h (1 Bft) NO 0,00 h 0,0 mm 0,0 UV-I 0 W/m -0,1 C 10,7 km/h (2 Bft)
12.03.2019 05:00 2,7 C 83 % 1023,0 hPa 0,0 mm 5,9 km/h (2 Bft) NO 0,00 h 0,0 mm 0,0 UV-I 0 W/m 0,2 C 14,2 km/h (3 Bft)
12.03.2019 06:00 3,3 C 85 % 1022,2 hPa 0,0 mm 6,6 km/h (2 Bft) NO 0,00 h 0,0 mm 0,0 UV-I 4 W/m 1,0 C 16,7 km/h (3 Bft)
12.03.2019 07:00 3,9 C 85 % 1021,4 hPa 0,0 mm 6,6 km/h (2 Bft) N-NO 0,08 h 0,0 mm 0,0 UV-I 32 W/m 1,6 C 16,6 km/h (3 Bft)
12.03.2019 08:00 5,0 C 80 % 1020,4 hPa 0,0 mm 8,7 km/h (2 Bft) NO 0,00 h 0,0 mm 0,5 UV-I 82 W/m 1,9 C 20,0 km/h (4 Bft)
12.03.2019 09:00 6,0 C 74 % 1019,3 hPa 0,0 mm 9,9 km/h (2 Bft) NO 0,00 h 0,1 mm 0,7 UV-I 127 W/m 1,7 C 23,7 km/h (4 Bft)
12.03.2019 10:00 6,9 C 69 % 1018,0 hPa 0,0 mm 14,8 km/h (3 Bft) O-NO 0,17 h 0,1 mm 0,9 UV-I 215 W/m 1,7 C 32,0 km/h (5 Bft)
12.03.2019 11:00 7,4 C 65 % 1016,5 hPa 0,0 mm 14,9 km/h (3 Bft) O-NO 0,25 h 0,1 mm 1,1 UV-I 241 W/m 1,2 C 33,5 km/h (5 Bft)
12.03.2019 12:00 8,4 C 62 % 1015,0 hPa 0,0 mm 14,4 km/h (3 Bft) N-NO 0,75 h 0,1 mm 1,5 UV-I 355 W/m 1,5 C 32,2 km/h (5 Bft)
12.03.2019 13:00 9,3 C 55 % 1013,3 hPa 0,0 mm 16,8 km/h (3 Bft) O 0,25 h 0,2 mm 1,4 UV-I 302 W/m 0,7 C 38,9 km/h (5 Bft)
12.03.2019 14:00 9,8 C 54 % 1011,2 hPa 0,0 mm 15,1 km/h (3 Bft) NO 0,25 h 0,2 mm 1,2 UV-I 278 W/m 1,0 C 32,2 km/h (5 Bft)
12.03.2019 15:00 9,8 C 52 % 1009,2 hPa 0,0 mm 15,2 km/h (3 Bft) O-NO 0,00 h 0,2 mm 0,7 UV-I 135 W/m 0,5 C 34,0 km/h (5 Bft)
12.03.2019 16:00 9,8 C 50 % 1007,3 hPa 0,0 mm 14,2 km/h (3 Bft) O-NO 0,00 h 0,1 mm 0,4 UV-I 59 W/m -0,1 C 33,3 km/h (5 Bft)
12.03.2019 17:00 9,7 C 47 % 1005,3 hPa 0,0 mm 17,5 km/h (3 Bft) NO 0,00 h 0,1 mm 0,0 UV-I 29 W/m -1,1 C 39,6 km/h (6 Bft)
12.03.2019 18:00 9,6 C 47 % 1003,8 hPa 0,0 mm 15,7 km/h (3 Bft) O 0,00 h 0,1 mm 0,0 UV-I 10 W/m -1,1 C 38,3 km/h (5 Bft)
12.03.2019 19:00 9,7 C 47 % 1002,3 hPa 0,0 mm 15,6 km/h (3 Bft) O 0,00 h 0,1 mm 0,0 UV-I 0 W/m -1,2 C 34,2 km/h (5 Bft)
12.03.2019 20:00 9,6 C 49 % 1001,4 hPa 0,0 mm 13,1 km/h (3 Bft) O-SO 0,00 h 0,1 mm 0,0 UV-I 0 W/m -0,7 C 29,3 km/h (5 Bft)
12.03.2019 21:00 9,9 C 56 % 1000,9 hPa 0,0 mm 11,8 km/h (2 Bft) S-SO 0,00 h 0,1 mm 0,0 UV-I 0 W/m 1,6 C 30,9 km/h (5 Bft)
12.03.2019 22:00 7,4 C 78 % 1002,9 hPa 0,0 mm 20,7 km/h (4 Bft) SW 0,00 h 0,1 mm 0,0 UV-I 0 W/m 3,7 C 50,3 km/h (7 Bft)
12.03.2019 23:00 5,4 C 85 % 1004,6 hPa 0,2 mm 21,4 km/h (4 Bft) W-SW 0,00 h 0,0 mm 0,0 UV-I 0 W/m 3,2 C 42,2 km/h (6 Bft)
13.03.2019 00:00 5,3 C 85 % 1005,7 hPa 0,0 mm 14,4 km/h (3 Bft) SW 0,00 h 0,0 mm 0,0 UV-I 0 W/m 3,0 C 30,7 km/h (5 Bft)
13.03.2019 01:00 5,2 C 80 % 1006,1 hPa 0,0 mm 15,6 km/h (3 Bft) S-SW 0,00 h 0,0 mm 0,0 UV-I 0 W/m 2,0 C 33,5 km/h (5 Bft)
13.03.2019 02:00 5,5 C 80 % 1006,1 hPa 0,0 mm 15,0 km/h (3 Bft) S-SW 0,00 h 0,0 mm 0,0 UV-I 0 W/m 2,3 C 32,4 km/h (5 Bft)
13.03.2019 03:00 6,0 C 77 % 1006,1 hPa 0,0 mm 13,8 km/h (3 Bft) S 0,00 h 0,0 mm 0,0 UV-I 0 W/m 2,3 C 32,6 km/h (5 Bft)
13.03.2019 04:00 6,1 C 75 % 1005,8 hPa 0,0 mm 12,5 km/h (3 Bft) S-SW 0,00 h 0,0 mm 0,0 UV-I 0 W/m 2,0 C 29,1 km/h (5 Bft)
13.03.2019 05:00 6,3 C 72 % 1005,8 hPa 0,0 mm 15,9 km/h (3 Bft) SW 0,00 h 0,0 mm 0,0 UV-I 0 W/m 1,6 C 35,5 km/h (5 Bft)
13.03.2019 06:00 6,3 C 71 % 1005,7 hPa 0,0 mm 15,9 km/h (3 Bft) SW 0,00 h 0,0 mm 0,0 UV-I 0 W/m 1,4 C 35,9 km/h (5 Bft)
13.03.2019 07:00 6,5 C 71 % 1005,6 hPa 0,0 mm 18,1 km/h (3 Bft) S 0,00 h 0,0 mm 0,0 UV-I 19 W/m 1,7 C 39,8 km/h (6 Bft)
13.03.2019 08:00 6,6 C 73 % 1005,4 hPa 0,0 mm 18,9 km/h (3 Bft) SW 0,00 h 0,1 mm 0,5 UV-I 86 W/m 2,0 C 40,7 km/h (6 Bft)
13.03.2019 09:00 6,9 C 74 % 1005,3 hPa 0,0 mm 16,8 km/h (3 Bft) W-SW 0,00 h 0,1 mm 0,7 UV-I 121 W/m 2,5 C 42,0 km/h (6 Bft)
13.03.2019 10:00 7,1 C 74 % 1005,1 hPa 0,0 mm 17,8 km/h (3 Bft) S-SO 0,00 h 0,1 mm 0,8 UV-I 132 W/m 2,7 C 44,2 km/h (6 Bft)
13.03.2019 11:00 7,2 C 75 % 1004,9 hPa 0,0 mm 19,2 km/h (3 Bft) S-SW 0,00 h 0,1 mm 0,7 UV-I 120 W/m 3,1 C 45,5 km/h (6 Bft)
13.03.2019 12:00 7,0 C 80 % 1004,8 hPa 0,0 mm 18,5 km/h (3 Bft) S-SW 0,17 h 0,1 mm 0,9 UV-I 248 W/m 3,7 C 44,1 km/h (6 Bft)
13.03.2019 13:00 7,4 C 78 % 1004,5 hPa 0,0 mm 18,7 km/h (3 Bft) W-SW 0,00 h 0,1 mm 0,8 UV-I 147 W/m 3,9 C 41,3 km/h (6 Bft)
13.03.2019 14:00 7,1 C 84 % 1004,1 hPa 0,2 mm 21,0 km/h (4 Bft) SW 0,08 h 0,1 mm 0,6 UV-I 158 W/m 4,5 C 44,8 km/h (6 Bft)
13.03.2019 15:00 7,5 C 84 % 1003,8 hPa 0,4 mm 17,5 km/h (3 Bft) W 0,00 h 0,1 mm 0,5 UV-I 102 W/m 5,0 C 37,6 km/h (5 Bft)
13.03.2019 16:00 6,9 C 86 % 1004,0 hPa 0,8 mm 18,2 km/h (3 Bft) W-SW 0,00 h 0,1 mm 0,3 UV-I 37 W/m 4,7 C 38,1 km/h (5 Bft)
13.03.2019 17:00 5,9 C 87 % 1004,7 hPa 1,0 mm 16,1 km/h (3 Bft) W-SW 0,00 h 0,0 mm 0,0 UV-I 6 W/m 3,8 C 36,5 km/h (5 Bft)
13.03.2019 18:00 5,7 C 89 % 1005,3 hPa 1,0 mm 16,1 km/h (3 Bft) W-SW 0,25 h 0,0 mm 0,0 UV-I 17 W/m 4,1 C 32,4 km/h (5 Bft)
13.03.2019 19:00 6,1 C 89 % 1006,3 hPa 0,6 mm 14,2 km/h (3 Bft) W 0,00 h 0,0 mm 0,0 UV-I 0 W/m 4,4 C 29,4 km/h (5 Bft)
13.03.2019 20:00 6,1 C 88 % 1007,4 hPa 0,6 mm 13,7 km/h (3 Bft) W 0,00 h 0,0 mm 0,0 UV-I 0 W/m 4,2 C 30,4 km/h (5 Bft)
13.03.2019 21:00 6,3 C 87 % 1008,2 hPa 0,2 mm 15,8 km/h (3 Bft) W-SW 0,00 h 0,0 mm 0,0 UV-I 0 W/m 4,2 C 31,1 km/h (5 Bft)
13.03.2019 22:00 5,9 C 85 % 1008,9 hPa 0,0 mm 15,9 km/h (3 Bft) W-SW 0,00 h 0,0 mm 0,0 UV-I 0 W/m 3,6 C 28,3 km/h (4 Bft)
13.03.2019 23:00 5,9 C 85 % 1009,5 hPa 0,0 mm 17,1 km/h (3 Bft) W-SW 0,00 h 0,0 mm 0,0 UV-I 0 W/m 3,5 C 34,3 km/h (5 Bft)
14.03.2019 00:00 5,8 C 85 % 1010,1 hPa 0,0 mm 16,6 km/h (3 Bft) W 0,00 h 0,0 mm 0,0 UV-I 0 W/m 3,4 C 33,3 km/h (5 Bft)
14.03.2019 01:00 5,6 C 87 % 1010,4 hPa 0,0 mm 14,1 km/h (3 Bft) W-SW 0,00 h 0,0 mm 0,0 UV-I 0 W/m 3,7 C 27,6 km/h (4 Bft)
14.03.2019 02:00 5,9 C 87 % 1010,4 hPa 0,0 mm 11,9 km/h (2 Bft) W-SW 0,00 h 0,0 mm 0,0 UV-I 0 W/m 3,8 C 26,5 km/h (4 Bft)
14.03.2019 03:00 6,5 C 86 % 1010,0 hPa 0,0 mm 12,2 km/h (2 Bft) W 0,00 h 0,0 mm 0,0 UV-I 0 W/m 4,3 C 23,7 km/h (4 Bft)
14.03.2019 04:00 6,5 C 84 % 1009,4 hPa 0,0 mm 12,3 km/h (3 Bft) W-SW 0,00 h 0,0 mm 0,0 UV-I 0 W/m 4,0 C 24,4 km/h (4 Bft)
14.03.2019 05:00 6,6 C 79 % 1008,8 hPa 0,0 mm 12,2 km/h (2 Bft) SW 0,00 h 0,0 mm 0,0 UV-I 0 W/m 3,3 C 26,5 km/h (4 Bft)
14.03.2019 06:00 6,6 C 81 % 1007,7 hPa 0,0 mm 8,9 km/h (2 Bft) S-SW 0,00 h 0,0 mm 0,0 UV-I 0 W/m 3,6 C 23,5 km/h (4 Bft)
14.03.2019 07:00 6,4 C 86 % 1006,7 hPa 0,2 mm 7,8 km/h (2 Bft) S 0,00 h 0,0 mm 0,0 UV-I 13 W/m 4,2 C 19,8 km/h (4 Bft)
14.03.2019 08:00 6,0 C 90 % 1005,6 hPa 0,4 mm 9,1 km/h (2 Bft) S 0,00 h 0,0 mm 0,0 UV-I 26 W/m 4,5 C 22,6 km/h (4 Bft)
14.03.2019 09:00 6,1 C 90 % 1004,1 hPa 0,6 mm 10,1 km/h (2 Bft) S 0,00 h 0,0 mm 0,0 UV-I 49 W/m 4,6 C 26,1 km/h (4 Bft)
14.03.2019 10:00 6,0 C 90 % 1002,5 hPa 0,6 mm 11,7 km/h (2 Bft) W-SW 0,00 h 0,0 mm 0,2 UV-I 62 W/m 4,4 C 30,2 km/h (5 Bft)
14.03.2019 11:00 6,3 C 90 % 1000,8 hPa 0,8 mm 13,0 km/h (3 Bft) S 0,00 h 0,0 mm 0,6 UV-I 101 W/m 4,8 C 32,6 km/h (5 Bft)
14.03.2019 12:00 6,4 C 90 % 999,0 hPa 1,2 mm 18,0 km/h (3 Bft) SW 0,00 h 0,1 mm 0,7 UV-I 107 W/m 4,8 C 40,2 km/h (6 Bft)
14.03.2019 13:00 6,9 C 92 % 997,3 hPa 1,6 mm 18,8 km/h (3 Bft) W-SW 0,00 h 0,1 mm 0,7 UV-I 114 W/m 5,6 C 41,5 km/h (6 Bft)
14.03.2019 14:00 8,1 C 94 % 996,6 hPa 1,6 mm 18,1 km/h (3 Bft) W 0,00 h 0,1 mm 0,7 UV-I 90 W/m 7,2 C 35,9 km/h (5 Bft)
14.03.2019 15:00 9,3 C 90 % 996,7 hPa 1,2 mm 23,4 km/h (4 Bft) W 0,00 h 0,1 mm 0,8 UV-I 111 W/m 7,7 C 48,3 km/h (6 Bft)
14.03.2019 16:00 9,4 C 88 % 997,2 hPa 1,2 mm 10,5 km/h (2 Bft) W-NW 0,17 h 0,1 mm 0,7 UV-I 123 W/m 7,5 C 31,8 km/h (5 Bft)
14.03.2019 17:00 8,5 C 86 % 998,5 hPa 1,2 mm 7,9 km/h (2 Bft) W-NW 0,17 h 0,1 mm 0,4 UV-I 60 W/m 6,3 C 25,9 km/h (4 Bft)
14.03.2019 18:00 8,2 C 83 % 1000,3 hPa 0,8 mm 10,8 km/h (2 Bft) W-NW 0,00 h 0,0 mm 0,0 UV-I 7 W/m 5,4 C 31,8 km/h (5 Bft)
14.03.2019 19:00 8,1 C 83 % 1002,2 hPa 0,4 mm 3,7 km/h (1 Bft) W-NW 0,00 h 0,0 mm 0,0 UV-I 0 W/m 5,4 C 13,2 km/h (3 Bft)
14.03.2019 20:00 7,4 C 85 % 1003,5 hPa 0,4 mm 5,1 km/h (1 Bft) W 0,00 h 0,0 mm 0,0 UV-I 0 W/m 5,1 C 17,4 km/h (3 Bft)
14.03.2019 21:00 7,6 C 84 % 1004,7 hPa 0,0 mm 5,6 km/h (1 Bft) W-SW 0,00 h 0,0 mm 0,0 UV-I 0 W/m 5,1 C 15,3 km/h (3 Bft)
14.03.2019 22:00 7,7 C 81 % 1005,6 hPa 0,0 mm 13,0 km/h (3 Bft) W-SW 0,00 h 0,0 mm 0,0 UV-I 0 W/m 4,6 C 25,9 km/h (4 Bft)
14.03.2019 23:00 7,6 C 81 % 1006,3 hPa 0,0 mm 12,9 km/h (3 Bft) W-SW 0,00 h 0,0 mm 0,0 UV-I 0 W/m 4,5 C 25,7 km/h (4 Bft)
15.03.2019 00:00 7,4 C 80 % 1006,6 hPa 0,0 mm 10,8 km/h (2 Bft) W 0,00 h 0,0 mm 0,0 UV-I 0 W/m 4,2 C 20,8 km/h (4 Bft)
15.03.2019 01:00 7,7 C 79 % 1007,1 hPa 0,0 mm 13,2 km/h (3 Bft) W 0,00 h 0,0 mm 0,0 UV-I 0 W/m 4,3 C 25,0 km/h (4 Bft)
15.03.2019 02:00 7,9 C 79 % 1007,0 hPa 0,0 mm 17,9 km/h (3 Bft) W 0,00 h 0,0 mm 0,0 UV-I 0 W/m 4,5 C 34,1 km/h (5 Bft)
15.03.2019 03:00 7,5 C 79 % 1006,6 hPa 0,0 mm 16,4 km/h (3 Bft) W 0,00 h 0,0 mm 0,0 UV-I 0 W/m 4,2 C 32,8 km/h (5 Bft)
15.03.2019 04:00 7,2 C 80 % 1006,5 hPa 0,0 mm 6,7 km/h (2 Bft) W-SW 0,00 h 0,0 mm 0,0 UV-I 0 W/m 4,1 C 16,3 km/h (3 Bft)
15.03.2019 05:00 7,3 C 81 % 1006,1 hPa 0,0 mm 6,2 km/h (2 Bft) W-SW 0,00 h 0,0 mm 0,0 UV-I 0 W/m 4,3 C 14,2 km/h (3 Bft)
15.03.2019 06:00 7,1 C 86 % 1005,7 hPa 0,2 mm 2,5 km/h (1 Bft) S 0,00 h 0,0 mm 0,0 UV-I 0 W/m 5,0 C 8,5 km/h (2 Bft)
15.03.2019 07:00 7,1 C 90 % 1005,1 hPa 0,2 mm 4,1 km/h (1 Bft) S-SW 0,00 h 0,0 mm 0,0 UV-I 16 W/m 5,6 C 12,6 km/h (3 Bft)
15.03.2019 08:00 7,1 C 93 % 1004,4 hPa 0,2 mm 3,5 km/h (1 Bft) S-SO 0,00 h 0,0 mm 0,0 UV-I 29 W/m 6,2 C 9,5 km/h (2 Bft)
15.03.2019 09:00 7,6 C 95 % 1003,8 hPa 0,4 mm 5,6 km/h (1 Bft) SO 0,00 h 0,0 mm 0,8 UV-I 50 W/m 6,9 C 13,5 km/h (3 Bft)
15.03.2019 10:00 10,0 C 96 % 1003,7 hPa 0,4 mm 16,9 km/h (3 Bft) W 0,00 h 0,0 mm 1,0 UV-I 90 W/m 9,4 C 36,5 km/h (5 Bft)
15.03.2019 11:00 10,9 C 95 % 1004,0 hPa 0,2 mm 21,7 km/h (4 Bft) W-SW 0,00 h 0,1 mm 1,3 UV-I 122 W/m 10,1 C 44,1 km/h (6 Bft)
15.03.2019 12:00 11,2 C 95 % 1004,6 hPa 0,4 mm 22,6 km/h (4 Bft) SW 0,00 h 0,1 mm 1,2 UV-I 109 W/m 10,3 C 45,9 km/h (6 Bft)
15.03.2019 13:00 11,5 C 92 % 1004,8 hPa 0,4 mm 21,5 km/h (4 Bft) W 0,00 h 0,1 mm 1,3 UV-I 126 W/m 10,2 C 44,4 km/h (6 Bft)
15.03.2019 14:00 11,8 C 89 % 1004,8 hPa 0,2 mm 22,2 km/h (4 Bft) W 0,00 h 0,1 mm 1,2 UV-I 101 W/m 10,0 C 47,2 km/h (6 Bft)
15.03.2019 15:00 12,2 C 85 % 1004,7 hPa 0,4 mm 23,0 km/h (4 Bft) W-SW 0,00 h 0,1 mm 1,1 UV-I 75 W/m 9,8 C 44,8 km/h (6 Bft)
15.03.2019 16:00 12,1 C 86 % 1004,7 hPa 0,4 mm 22,2 km/h (4 Bft) W-SW 0,00 h 0,1 mm 0,0 UV-I 28 W/m 9,8 C 44,2 km/h (6 Bft)
15.03.2019 17:00 11,8 C 87 % 1004,4 hPa 0,6 mm 24,1 km/h (4 Bft) W 0,00 h 0,0 mm 0,0 UV-I 23 W/m 9,8 C 46,3 km/h (6 Bft)
15.03.2019 18:00 11,3 C 91 % 1004,9 hPa 0,4 mm 22,7 km/h (4 Bft) SW 0,00 h 0,0 mm 0,0 UV-I 6 W/m 9,8 C 47,2 km/h (6 Bft)
15.03.2019 19:00 10,9 C 93 % 1005,8 hPa 4,6 mm 15,7 km/h (3 Bft) W 0,00 h 0,0 mm 0,0 UV-I 0 W/m 9,8 C 35,4 km/h (5 Bft)
15.03.2019 20:00 10,2 C 96 % 1006,8 hPa 2,4 mm 9,4 km/h (2 Bft) W-NW 0,00 h 0,0 mm 0,0 UV-I 0 W/m 9,6 C 28,7 km/h (4 Bft)
15.03.2019 21:00 10,1 C 95 % 1007,8 hPa 0,8 mm 5,3 km/h (1 Bft) W 0,00 h 0,0 mm 0,0 UV-I 0 W/m 9,4 C 19,6 km/h (3 Bft)
15.03.2019 22:00 9,5 C 94 % 1008,3 hPa 0,4 mm 0,8 km/h (0 Bft) W-SW 0,00 h 0,0 mm 0,0 UV-I 0 W/m 8,6 C 5,2 km/h (1 Bft)
15.03.2019 23:00 8,6 C 95 % 1009,0 hPa 0,6 mm 0,3 km/h (0 Bft) W-SW 0,00 h 0,0 mm 0,0 UV-I 0 W/m 7,9 C 3,1 km/h (1 Bft)
16.03.2019 00:00 9,0 C 96 % 1009,5 hPa 0,4 mm 7,1 km/h (2 Bft) W-SW 0,00 h 0,0 mm 0,0 UV-I 0 W/m 8,4 C 17,4 km/h (3 Bft)
16.03.2019 01:00 9,0 C 94 % 1010,1 hPa 0,4 mm 7,9 km/h (2 Bft) W-SW 0,00 h 0,0 mm 0,0 UV-I 0 W/m 8,1 C 22,0 km/h (4 Bft)
16.03.2019 02:00 8,2 C 95 % 1010,5 hPa 0,4 mm 2,2 km/h (1 Bft) W 0,00 h 0,0 mm 0,0 UV-I 0 W/m 7,4 C 11,4 km/h (2 Bft)
16.03.2019 03:00 7,7 C 95 % 1010,4 hPa 0,4 mm 3,2 km/h (1 Bft) W 0,00 h 0,0 mm 0,0 UV-I 0 W/m 6,9 C 12,0 km/h (2 Bft)
16.03.2019 04:00 7,4 C 96 % 1010,0 hPa 0,4 mm 0,7 km/h (0 Bft) W-SW 0,00 h 0,0 mm 0,0 UV-I 0 W/m 6,8 C 3,6 km/h (1 Bft)
16.03.2019 05:00 7,7 C 97 % 1009,9 hPa 0,4 mm 3,0 km/h (1 Bft) W-SW 0,00 h 0,0 mm 0,0 UV-I 0 W/m 7,2 C 8,7 km/h (2 Bft)
16.03.2019 06:00 7,7 C 97 % 1009,8 hPa 0,2 mm 0,9 km/h (0 Bft) W-SW 0,00 h 0,0 mm 0,0 UV-I 0 W/m 7,3 C 3,9 km/h (1 Bft)
16.03.2019 07:00 7,8 C 97 % 1009,7 hPa 0,4 mm 2,6 km/h (1 Bft) W 0,00 h 0,0 mm 0,0 UV-I 10 W/m 7,3 C 8,0 km/h (2 Bft)
16.03.2019 08:00 9,4 C 97 % 1009,6 hPa 0,0 mm 16,5 km/h (3 Bft) SW 0,00 h 0,0 mm 0,8 UV-I 58 W/m 8,9 C 35,7 km/h (5 Bft)
16.03.2019 09:00 9,7 C 95 % 1009,8 hPa 0,0 mm 15,8 km/h (3 Bft) SW 0,00 h 0,0 mm 0,3 UV-I 46 W/m 8,8 C 33,5 km/h (5 Bft)
16.03.2019 10:00 10,1 C 90 % 1009,4 hPa 0,0 mm 16,0 km/h (3 Bft) SW 0,00 h 0,0 mm 1,0 UV-I 127 W/m 8,6 C 34,8 km/h (5 Bft)
16.03.2019 11:00 11,0 C 85 % 1008,9 hPa 0,0 mm 16,1 km/h (3 Bft) SW 0,08 h 0,1 mm 1,4 UV-I 181 W/m 8,5 C 35,5 km/h (5 Bft)
16.03.2019 12:00 11,8 C 75 % 1008,5 hPa 0,0 mm 19,5 km/h (3 Bft) W-SW 0,33 h 0,1 mm 1,7 UV-I 263 W/m 7,6 C 41,3 km/h (6 Bft)
16.03.2019 13:00 11,5 C 77 % 1008,5 hPa 0,0 mm 17,2 km/h (3 Bft) SW 0,00 h 0,2 mm 1,1 UV-I 128 W/m 7,5 C 34,6 km/h (5 Bft)
16.03.2019 14:00 11,2 C 76 % 1008,1 hPa 0,0 mm 13,1 km/h (3 Bft) W-SW 0,00 h 0,1 mm 0,8 UV-I 60 W/m 7,1 C 33,0 km/h (5 Bft)
16.03.2019 15:00 11,3 C 73 % 1007,5 hPa 0,0 mm 12,0 km/h (2 Bft) SW 0,00 h 0,1 mm 0,8 UV-I 74 W/m 6,6 C 28,1 km/h (4 Bft)
16.03.2019 16:00 11,4 C 71 % 1006,8 hPa 0,0 mm 13,4 km/h (3 Bft) W-SW 0,00 h 0,1 mm 0,9 UV-I 87 W/m 6,3 C 31,1 km/h (5 Bft)
16.03.2019 17:00 11,4 C 70 % 1006,0 hPa 0,0 mm 12,8 km/h (3 Bft) S-SW 0,00 h 0,1 mm 0,4 UV-I 39 W/m 6,1 C 30,7 km/h (5 Bft)
16.03.2019 18:00 11,2 C 69 % 1005,7 hPa 0,0 mm 9,6 km/h (2 Bft) S-SW 0,00 h 0,1 mm 0,0 UV-I 11 W/m 5,7 C 22,8 km/h (4 Bft)
16.03.2019 19:00 11,0 C 69 % 1005,2 hPa 0,0 mm 8,3 km/h (2 Bft) S 0,00 h 0,0 mm 0,0 UV-I 0 W/m 5,6 C 21,3 km/h (4 Bft)
16.03.2019 20:00 10,2 C 73 % 1004,9 hPa 0,0 mm 6,3 km/h (2 Bft) S-SO 0,00 h 0,0 mm 0,0 UV-I 0 W/m 5,6 C 14,8 km/h (3 Bft)
16.03.2019 21:00 8,9 C 79 % 1004,2 hPa 0,0 mm 4,5 km/h (1 Bft) SO 0,00 h 0,0 mm 0,0 UV-I 0 W/m 5,4 C 10,5 km/h (2 Bft)
16.03.2019 22:00 8,9 C 80 % 1003,6 hPa 0,0 mm 4,5 km/h (1 Bft) SO 0,00 h 0,0 mm 0,0 UV-I 0 W/m 5,6 C 10,7 km/h (2 Bft)
16.03.2019 23:00 9,8 C 77 % 1002,8 hPa 0,0 mm 6,5 km/h (2 Bft) S-SO 0,00 h 0,0 mm 0,0 UV-I 0 W/m 5,8 C 17,6 km/h (3 Bft)
17.03.2019 00:00 10,9 C 71 % 1002,0 hPa 0,0 mm 10,4 km/h (2 Bft) S-SO 0,00 h 0,0 mm 0,0 UV-I 0 W/m 5,9 C 28,7 km/h (4 Bft)
17.03.2019 01:00 11,3 C 68 % 1001,2 hPa 0,0 mm 13,8 km/h (3 Bft) S 0,00 h 0,0 mm 0,0 UV-I 0 W/m 5,5 C 35,7 km/h (5 Bft)
17.03.2019 02:00 11,1 C 67 % 1000,3 hPa 0,0 mm 11,2 km/h (2 Bft) S-SW 0,00 h 0,0 mm 0,0 UV-I 0 W/m 5,3 C 28,0 km/h (4 Bft)
17.03.2019 03:00 10,8 C 68 % 999,8 hPa 0,0 mm 8,2 km/h (2 Bft) S 0,00 h 0,0 mm 0,0 UV-I 0 W/m 5,1 C 20,9 km/h (4 Bft)
17.03.2019 04:00 10,5 C 69 % 998,8 hPa 0,0 mm 9,2 km/h (2 Bft) S-SO 0,00 h 0,0 mm 0,0 UV-I 0 W/m 5,1 C 26,5 km/h (4 Bft)
17.03.2019 05:00 10,2 C 70 % 998,6 hPa 0,0 mm 9,6 km/h (2 Bft) S-SO 0,00 h 0,0 mm 0,0 UV-I 0 W/m 4,9 C 26,3 km/h (4 Bft)
17.03.2019 06:00 9,9 C 74 % 998,7 hPa 0,0 mm 11,4 km/h (2 Bft) W-SW 0,00 h 0,0 mm 0,0 UV-I 4 W/m 5,5 C 29,3 km/h (5 Bft)
17.03.2019 07:00 9,0 C 83 % 999,2 hPa 0,8 mm 12,2 km/h (2 Bft) S-SW 0,00 h 0,0 mm 0,0 UV-I 13 W/m 6,3 C 28,9 km/h (5 Bft)
17.03.2019 08:00 8,3 C 86 % 1000,0 hPa 0,8 mm 16,5 km/h (3 Bft) S-SW 0,00 h 0,0 mm 0,8 UV-I 59 W/m 6,2 C 35,9 km/h (5 Bft)
17.03.2019 09:00 7,7 C 84 % 1001,0 hPa 0,2 mm 13,7 km/h (3 Bft) SW 0,00 h 0,1 mm 0,8 UV-I 134 W/m 5,1 C 29,4 km/h (5 Bft)
17.03.2019 10:00 8,2 C 82 % 1001,8 hPa 0,0 mm 13,4 km/h (3 Bft) W-SW 0,00 h 0,1 mm 0,9 UV-I 190 W/m 5,3 C 28,5 km/h (4 Bft)
17.03.2019 11:00 8,8 C 76 % 1002,4 hPa 0,0 mm 17,3 km/h (3 Bft) W-SW 0,08 h 0,1 mm 1,0 UV-I 218 W/m 4,7 C 35,0 km/h (5 Bft)
17.03.2019 12:00 10,2 C 64 % 1002,9 hPa 0,0 mm 20,0 km/h (4 Bft) O 0,92 h 0,1 mm 1,9 UV-I 693 W/m 3,6 C 44,6 km/h (6 Bft)
17.03.2019 13:00 10,6 C 60 % 1003,5 hPa 0,0 mm 16,2 km/h (3 Bft) O 0,83 h 0,3 mm 1,1 UV-I 468 W/m 3,1 C 35,4 km/h (5 Bft)
17.03.2019 14:00 9,2 C 69 % 1004,5 hPa 0,0 mm 7,9 km/h (2 Bft) O 0,42 h 0,2 mm 0,7 UV-I 360 W/m 3,7 C 25,7 km/h (4 Bft)
17.03.2019 15:00 8,3 C 70 % 1005,0 hPa 0,0 mm 15,2 km/h (3 Bft) W-SW 0,25 h 0,2 mm 0,5 UV-I 205 W/m 3,1 C 32,8 km/h (5 Bft)
17.03.2019 16:00 7,5 C 70 % 1005,9 hPa 0,0 mm 15,7 km/h (3 Bft) W 0,08 h 0,1 mm 0,3 UV-I 88 W/m 2,3 C 33,0 km/h (5 Bft)
17.03.2019 17:00 7,2 C 70 % 1006,5 hPa 0,0 mm 17,2 km/h (3 Bft) W-SW 0,33 h 0,1 mm 0,4 UV-I 105 W/m 2,1 C 35,0 km/h (5 Bft)
17.03.2019 18:00 6,4 C 73 % 1007,4 hPa 0,0 mm 11,9 km/h (2 Bft) SW 0,00 h 0,1 mm 0,0 UV-I 10 W/m 1,8 C 25,5 km/h (4 Bft)
17.03.2019 19:00 4,0 C 85 % 1009,1 hPa 0,8 mm 12,4 km/h (3 Bft) W 0,00 h 0,0 mm 0,0 UV-I 0 W/m 1,7 C 28,3 km/h (4 Bft)
17.03.2019 20:00 3,3 C 90 % 1009,8 hPa 0,0 mm 9,0 km/h (2 Bft) W-SW 0,00 h 0,0 mm 0,0 UV-I 0 W/m 1,7 C 21,5 km/h (4 Bft)
17.03.2019 21:00 3,2 C 88 % 1010,4 hPa 0,0 mm 8,0 km/h (2 Bft) W-SW 0,00 h 0,0 mm 0,0 UV-I 0 W/m 1,5 C 18,0 km/h (3 Bft)
17.03.2019 22:00 3,5 C 86 % 1011,1 hPa 0,0 mm 9,1 km/h (2 Bft) W 0,00 h 0,0 mm 0,0 UV-I 0 W/m 1,4 C 19,3 km/h (3 Bft)
17.03.2019 23:00 3,7 C 86 % 1011,7 hPa 0,0 mm 3,7 km/h (1 Bft) W 0,00 h 0,0 mm 0,0 UV-I 0 W/m 1,6 C 11,1 km/h (2 Bft)
Min-Datum _ 12.03.19 12.03.19 14.03.19 - 12.03.19 - - - - - 12.03.19 12.03.19
_ Min-Zeit 03:50 17:40 14:40 - 01:25 - - - - - 17:40 01:25
Minimum _ 1,9 C 46 % 996,5 hPa - 0,0 km/h (0 Bft) - - - - - -1,4 C 0,0 km/h (0 Bft)
Max-Datum _ 15.03.19 16.03.19 11.03.19 15.03.19 11.03.19 - 11.03.19 17.03.19 17.03.19 17.03.19 15.03.19 11.03.19
_ Max-Zeit 15:25 07:55 23:35 19:40 14:40 - 12:35 13:05 12:40 12:45 12:55 15:10
Maximum _ 12,3 C 98 % 1025,5 hPa 4,6 mm 35,5 km/h
S-SO (5 Bft)
- 0,08 h 0,3 mm 2,3 UV-I 854 W/m 10,5 C 64,4 km/h
S (8 Bft)
Durchschnitt _ 7,4 C 81 % 1008,5 hPa #40,0 mm 12,8 km/h (3 Bft) W-SW #8:45 h #7,137 mm 0,8 UV-I 119 W/m 4,1 C 29,2 km/h (5 Bft)



© 1998 - 2019 www.pulheimwetter.de